createdAt,value
2019-04-20T00:03:45.654Z,21.75
2019-04-20T00:09:01.396Z,23.95
2019-04-20T00:14:05.767Z,22.75
2019-04-20T00:19:09.268Z,22.37
2019-04-20T00:24:44.267Z,24.90
2019-04-20T00:30:10.304Z,21.68
2019-04-20T00:34:59.980Z,20.10
2019-04-20T00:40:07.857Z,19.82
2019-04-20T00:45:19.180Z,19.95
2019-04-20T00:50:34.355Z,20.88
2019-04-20T00:55:31.829Z,14.35
2019-04-20T01:01:04.081Z,22.62
2019-04-20T01:06:24.805Z,19.57
2019-04-20T01:11:10.148Z,19.15
2019-04-20T01:16:27.603Z,18.02
2019-04-20T01:21:27.079Z,19.00
2019-04-20T01:26:35.642Z,19.35
2019-04-20T01:31:56.037Z,25.25
2019-04-20T01:37:04.511Z,21.55
2019-04-20T01:41:56.152Z,26.73
2019-04-20T01:47:05.441Z,27.70
2019-04-20T01:52:19.197Z,24.52
2019-04-20T01:57:33.027Z,24.85
2019-04-20T02:02:49.726Z,23.70
2019-04-20T02:07:52.669Z,25.10
2019-04-20T02:13:02.591Z,20.70
2019-04-20T02:18:17.655Z,26.05
2019-04-20T02:23:25.169Z,24.67
2019-04-20T02:28:37.331Z,20.77
2019-04-20T02:39:34.962Z,21.02
2019-04-20T02:44:35.687Z,18.95
2019-04-20T02:54:45.113Z,18.92
2019-04-20T03:04:39.978Z,19.32
2019-04-20T03:09:57.712Z,22.95
2019-04-20T03:15:00.671Z,23.27
2019-04-20T03:20:10.660Z,18.50
2019-04-20T03:25:45.423Z,17.50
2019-04-20T03:41:18.333Z,22.70
2019-04-20T03:46:19.162Z,20.68
2019-04-20T03:51:47.113Z,24.55
2019-04-20T03:57:15.583Z,17.27
2019-04-20T04:02:45.698Z,17.77
2019-04-20T04:07:32.314Z,16.35
2019-04-20T04:13:07.392Z,20.25
2019-04-20T04:18:23.612Z,16.35
2019-04-20T04:23:40.327Z,18.92
2019-04-20T04:28:51.625Z,16.82
2019-04-20T04:33:59.626Z,17.95
2019-04-20T04:39:08.664Z,16.20
2019-04-20T04:44:10.774Z,15.98
2019-04-20T04:49:09.626Z,19.42
2019-04-20T04:54:24.382Z,17.75
2019-04-20T04:59:19.526Z,17.30
2019-04-20T05:05:05.198Z,18.62
2019-04-20T05:09:52.862Z,20.08
2019-04-20T05:15:08.002Z,22.70
2019-04-20T05:20:23.282Z,21.15
2019-04-20T05:25:56.970Z,20.00
2019-04-20T05:30:46.712Z,18.27
2019-04-20T05:36:14.731Z,23.55
2019-04-20T05:41:18.815Z,20.17
2019-04-20T05:46:27.505Z,18.05
2019-04-20T05:51:40.957Z,18.23
2019-04-20T05:57:00.772Z,19.82
2019-04-20T06:01:59.131Z,15.50
2019-04-20T06:07:06.460Z,14.53
2019-04-20T06:12:20.030Z,15.05
2019-04-20T06:17:23.957Z,15.63
2019-04-20T06:22:58.568Z,16.85
2019-04-20T06:27:45.113Z,18.45
2019-04-20T06:33:50.226Z,15.75
2019-04-20T06:43:45.813Z,18.05
2019-04-20T06:48:51.379Z,12.78
2019-04-20T06:53:59.711Z,16.57
2019-04-20T06:59:21.379Z,14.47
2019-04-20T07:04:38.301Z,13.98
2019-04-20T07:09:45.079Z,13.25
2019-04-20T07:14:34.036Z,14.47
2019-04-20T07:19:54.320Z,10.32
2019-04-20T07:30:07.837Z,12.37
2019-04-20T07:35:14.114Z,10.78
2019-04-20T07:40:20.393Z,11.03
2019-04-20T07:45:29.550Z,9.78
2019-04-20T07:50:30.590Z,9.75
2019-04-20T07:55:50.873Z,8.73
2019-04-20T08:01:04.494Z,9.85
2019-04-20T08:05:55.131Z,8.23
2019-04-20T08:11:12.683Z,9.60
2019-04-20T08:16:28.642Z,8.65
2019-04-20T08:21:33.352Z,8.35
2019-04-20T08:26:23.092Z,8.73
2019-04-20T08:32:04.403Z,8.93
2019-04-20T08:37:05.926Z,9.00
2019-04-20T08:42:16.440Z,7.33
2019-04-20T08:52:55.229Z,8.33
2019-04-20T08:57:22.542Z,9.08
2019-04-20T09:02:28.771Z,7.30
2019-04-20T09:07:47.347Z,7.62
2019-04-20T09:12:57.270Z,8.35
2019-04-20T09:18:21.422Z,7.90
2019-04-20T09:23:36.597Z,10.55
2019-04-20T09:28:56.909Z,7.33
2019-04-20T09:34:29.224Z,6.72
2019-04-20T09:40:10.924Z,6.60
2019-04-20T09:44:57.489Z,6.95
2019-04-20T09:50:19.399Z,7.08
2019-04-20T09:55:21.824Z,7.78
2019-04-20T10:00:35.698Z,6.17
2019-04-20T10:05:25.390Z,8.68
2019-04-20T10:10:38.467Z,5.92
2019-04-20T10:15:39.640Z,6.72
2019-04-20T10:20:45.807Z,6.37
2019-04-20T10:25:52.208Z,6.97
2019-04-20T10:30:58.941Z,9.63
2019-04-20T10:36:07.764Z,5.97
2019-04-20T10:41:25.672Z,6.17
2019-04-20T10:46:22.664Z,6.55
2019-04-20T10:51:29.527Z,5.95
2019-04-20T10:56:37.057Z,5.53
2019-04-20T11:01:43.602Z,6.45
2019-04-20T11:06:50.365Z,7.35
2019-04-20T11:11:56.646Z,6.17
2019-04-20T11:17:02.943Z,6.03
2019-04-20T11:22:10.391Z,7.33
2019-04-20T11:27:16.411Z,6.78
2019-04-20T11:32:22.666Z,7.45
2019-04-20T11:37:29.043Z,6.92
2019-04-20T11:42:35.434Z,5.78
2019-04-20T11:47:41.666Z,6.22
2019-04-20T11:52:49.940Z,6.40
2019-04-20T11:57:56.226Z,5.30
2019-04-20T12:03:50.725Z,6.55
2019-04-20T12:08:47.343Z,5.83
2019-04-20T12:13:54.508Z,6.33
2019-04-20T12:19:02.145Z,7.22
2019-04-20T12:24:08.041Z,5.80
2019-04-20T12:29:14.101Z,7.85
2019-04-20T12:34:20.397Z,6.03
2019-04-20T12:39:27.023Z,5.55
2019-04-20T12:44:32.995Z,7.25
2019-04-20T12:49:38.839Z,6.97
2019-04-20T12:54:46.271Z,5.80
2019-04-20T12:59:52.513Z,6.00
2019-04-20T13:04:59.638Z,6.83
2019-04-20T13:10:07.775Z,4.62
2019-04-20T13:15:44.532Z,7.75
2019-04-20T13:20:53.518Z,7.65
2019-04-20T13:25:59.200Z,7.58
2019-04-20T13:31:06.129Z,7.60
2019-04-20T13:36:12.564Z,6.78
2019-04-20T13:41:19.624Z,5.83
2019-04-20T13:46:27.180Z,6.17
2019-04-20T13:51:34.878Z,7.53
2019-04-20T13:56:41.757Z,8.50
2019-04-20T14:01:57.055Z,5.45
2019-04-20T14:07:04.040Z,7.22
2019-04-20T14:12:17.353Z,5.70
2019-04-20T14:17:19.217Z,8.50
2019-04-20T14:22:25.292Z,6.50
2019-04-20T14:27:32.871Z,8.33
2019-04-20T14:32:39.189Z,7.00
2019-04-20T14:37:45.907Z,9.35
2019-04-20T14:42:55.007Z,6.53
2019-04-20T14:47:59.987Z,6.35
2019-04-20T14:53:07.325Z,5.67
2019-04-20T14:58:31.459Z,9.40
2019-04-20T15:03:40.421Z,11.45
2019-04-20T15:08:46.542Z,8.10
2019-04-20T15:13:53.054Z,6.50
2019-04-20T15:19:17.848Z,6.60
2019-04-20T15:24:24.379Z,5.08
2019-04-20T15:29:30.592Z,6.42
2019-04-20T15:34:37.188Z,4.72
2019-04-20T15:39:43.437Z,9.40
2019-04-20T15:44:49.585Z,5.97
2019-04-20T15:49:56.052Z,8.60
2019-04-20T15:55:14.248Z,7.37
2019-04-20T16:00:11.034Z,5.92
2019-04-20T16:05:35.595Z,9.28
2019-04-20T16:10:43.247Z,6.95
2019-04-20T16:15:49.827Z,6.72
2019-04-20T16:21:03.597Z,6.83
2019-04-20T16:26:29.670Z,9.08
2019-04-20T16:31:36.299Z,5.77
2019-04-20T16:36:44.364Z,9.90
2019-04-20T16:41:50.779Z,5.92
2019-04-20T16:46:58.265Z,7.85
2019-04-20T16:52:05.247Z,7.08
2019-04-20T16:57:13.097Z,6.87
2019-04-20T17:02:21.103Z,6.97
2019-04-20T17:07:39.738Z,6.33
2019-04-20T17:12:46.132Z,6.97
2019-04-20T17:17:53.943Z,6.55
2019-04-20T17:23:02.121Z,5.87
2019-04-20T17:28:40.591Z,6.08
2019-04-20T17:34:01.437Z,5.47
2019-04-20T17:39:04.603Z,6.50
2019-04-20T17:44:27.890Z,7.60
2019-04-20T17:49:29.351Z,6.87
2019-04-20T17:54:41.571Z,7.58
2019-04-20T17:59:58.246Z,8.23
2019-04-20T18:05:28.393Z,8.95
2019-04-20T18:10:34.259Z,7.55
2019-04-20T18:15:40.652Z,7.20
2019-04-20T18:20:45.012Z,5.70
2019-04-20T18:26:15.974Z,7.45
2019-04-20T18:31:19.632Z,9.40
2019-04-20T18:36:32.175Z,7.85
2019-04-20T18:41:38.376Z,6.80
2019-04-20T18:47:07.021Z,9.43
2019-04-20T18:51:48.852Z,6.75
2019-04-20T18:56:56.795Z,10.25
2019-04-20T19:02:06.746Z,5.92
2019-04-20T19:07:12.062Z,11.10
2019-04-20T19:12:22.830Z,11.15
2019-04-20T19:17:52.122Z,6.00
2019-04-20T19:22:48.212Z,10.72
2019-04-20T19:27:56.540Z,27.75
2019-04-20T19:33:19.103Z,14.38
2019-04-20T19:38:19.893Z,13.20
2019-04-20T19:43:26.634Z,10.95
2019-04-20T19:48:39.569Z,8.80
2019-04-20T19:53:59.963Z,10.40
2019-04-20T19:58:56.375Z,10.70
2019-04-20T20:03:57.513Z,8.18
2019-04-20T20:09:06.794Z,8.25
2019-04-20T20:14:11.759Z,9.65
2019-04-20T20:19:32.708Z,8.35
2019-04-20T20:24:25.234Z,12.03
2019-04-20T20:29:38.460Z,7.80
2019-04-20T20:34:43.416Z,10.45
2019-04-20T20:40:02.253Z,8.45
2019-04-20T20:45:06.927Z,8.58
2019-04-20T20:50:25.609Z,9.33
2019-04-20T20:55:22.110Z,9.48
2019-04-20T21:00:34.450Z,8.68
2019-04-20T21:05:29.085Z,8.03
2019-04-20T21:10:41.889Z,9.30
2019-04-20T21:15:45.393Z,10.98
2019-04-20T21:21:06.262Z,8.55
2019-04-20T21:26:12.772Z,6.62
2019-04-20T21:31:22.375Z,10.32
2019-04-20T21:36:29.211Z,8.90
2019-04-20T21:41:32.035Z,9.98
2019-04-20T21:46:44.206Z,9.15
2019-04-20T21:51:54.458Z,8.28
2019-04-20T21:57:01.155Z,6.92
2019-04-20T22:02:10.371Z,5.80
2019-04-20T22:07:10.382Z,6.37
2019-04-20T22:12:16.483Z,8.55
2019-04-20T22:17:28.845Z,5.47
2019-04-20T22:22:50.826Z,6.78
2019-04-20T22:27:39.393Z,6.40
2019-04-20T22:32:49.905Z,7.10
2019-04-20T22:38:08.273Z,6.50
2019-04-20T22:43:10.394Z,11.08
2019-04-20T22:48:19.222Z,6.35
2019-04-20T22:53:36.478Z,9.95
2019-04-20T22:58:46.049Z,7.42
2019-04-20T23:03:41.100Z,8.90
2019-04-20T23:08:55.683Z,7.33
2019-04-20T23:13:56.194Z,11.33
2019-04-20T23:19:02.516Z,8.53
2019-04-20T23:24:10.091Z,9.93
2019-04-20T23:29:17.403Z,7.83
2019-04-20T23:34:28.473Z,9.85
2019-04-20T23:39:37.347Z,10.00
2019-04-20T23:44:54.568Z,9.95
2019-04-20T23:50:16.306Z,9.28
2019-04-20T23:55:13.287Z,9.75
